Boyle, MS

4:34 PM CDT on July 10, 2014 (GMT -0500)
Cleveland Municipal (KRNV) Elev 138 ft | 33.76 °N, 90.76 °W | Change Station

Current weather conditions updated 19 minutes ago

Overcast
Overcast
88 °F
Feels Like 98 °F
N
4
Wind Variable Wind from SSW

Tomorrow is forecast to be Warmer than today.

Today
High -- | Low -- °F
--% Chance of Precip.
Yesterday
High -- | Low -- °F
Precip. -- in
6:00 AM 8:15 PM
Waxing Gibbous, 96% visible
Pressure 30.01 in
Visibility 10.0 miles
Clouds Mostly Cloudy 4100 ft
Overcast 5500 ft
Heat Index 98 °F
Dew Point 75 °F
Humidity 65%
Rainfall 0.00 in
Snow Depth Not available.
UV 2 out of 12
Pollen 2.90 out of 12
Air Quality Not available.
Flu Activity No Activity
METAR KRNV 102115Z AUTO 20003KT 10SM BKN041 OVC055 31/24 A3001 RMK AO2 LTG DSNT S THRU NW T03110239

More Conditions Fewer Conditions

Pressure 30.01 in
Visibility 10.0 miles
Clouds Mostly Cloudy 4100 ft
Overcast 5500 ft
Heat Index 98 °F
Dew Point 75 °F
Humidity 65%
Rainfall 0.00 in
Snow Depth Not available.
UV 2 out of 12
Pollen 2.90 out of 12
Air Quality Not available.
Flu Activity No Activity
METAR KRNV 102115Z AUTO 20003KT 10SM BKN041 OVC055 31/24 A3001 RMK AO2 LTG DSNT S THRU NW T03110239

More Conditions Fewer Conditions

10-Day Weather Forecast

Almanac

Astronomy

Jul. 10, 2014 Rise Set
Actual Time 6:00 AM CDT 8:15 PM CDT
Civil Twilight 5:31 AM CDT 8:44 PM CDT
Nautical Twilight 4:56 AM CDT 9:19 PM CDT
Astronomical Twilight 4:18 AM CDT 9:57 PM CDT
Moon 6:31 PM CDT 4:09 AM CDT
Length of Visible Light 15h 12m
Length of Day
14h 15m
Tomorrow will be 0m 53s shorter.
Waxing Gibbous, 96% of the Moon is Illuminated
Today
Waxing Gibbous
Jul 12
Full
Jul 18
Last Quarter
Jul 26
New
Aug 3
First Quarter

Today's Extremes

State Highs State Lows

Community

WunderPhotos

Upload Photos

1,732,271 photos uploaded!

Nearby

Snow Depth

Station Depth Elevation
No new snow has been reported.

Earthquake Activity

City Distance Mag. Time & Date
No recent earthquake activity has been reported nearby.
Minimum magnitude displayed is 2.5.

Coastal Water Temperatures

Place Temperature
No Stations Reporting

Nearby Weather Stations

Station Location Temp. Heat Index Dew Point Humidity Wind Precip. Elev Updated Type
MesoWest SANDY RIDGE , Doddsville, MS 87 °F 94 °F 73 °F 63% SE  at  3 mph 0.00 in / hr 138 ft 3:00 PM CDT MADIS
MesoWest PERTHSHIRE , Gunnison, MS 88 °F 95 °F 72 °F 60% South  at  3 mph 0.00 in / hr 200 ft 3:00 PM CDT MADIS
MesoWest SCOTT , Scott, MS 87 °F 93 °F 72 °F 61% SW  at  3 mph 0.00 in / hr 165 ft 3:00 PM CDT MADIS
MesoWest BEASLEY LAKE , Inverness, MS 87 °F 96 °F 75 °F 67% SSE  at  3 mph 0.00 in / hr 115 ft 3:00 PM CDT MADIS
KC4ECB Amature Radio Station on Old Tall, Minter City, MS 88.8 °F 100 °F 76 °F 66% NE  at  0.0 mph 0.00 in / hr 140 ft 4:20 PM CDT Normal

Show More Stations Show Fewer Stations